Terminal Aerodrome Forecast
Issued by NWS Shreveport, LA

Home | Current Version | Previous Version | Text Only | Print | Product List | Glossary On
Versions: 1 2 3 4 5 6 7 8 9 10 11 12 13 14 15 16 17 18
000
FTUS44 KSHV 301600 AAB
TAFELD
TAF AMD
KELD 301607Z 3016/3112 15007KT P6SM VCSH BKN011 OVC090
     FM301700 14008KT P6SM VCTS BKN022CB
      TEMPO 3018/3022 2SM +TSRA OVC015CB
     FM310000 15007KT P6SM VCTS OVC015CB
     FM310600 18006KT P6SM OVC008=

USA.gov is the U.S. government's official web portal to all federal, state and local government web resources and services.